Nassogne, Belgium
Current Conditions -  °F | °C
As of 7:03 AM on Thursday 23 Oct 2014 (Local Time) from EBFS Reporting Station
Broken Clouds Broken Clouds  
Wind Chill: 42°   Ceiling: 2600
Heat Index: 45°   Visibility: 6mi
Dew Point: 43°   Wind: 5mph
Humidity: 93%   Direction: 240°WSW
Pressure: 30.21"   Gusts: NA
Location:  50.13°N, 5.34°E
Report Text: EBFS 230503Z 24004KT 9999 FEW020 BKN026 07/06 Q1023 BLU BLU TEMPO GRN
Loading
Personal Weather Stations






























Interactive Weather Map
Tropical Storm Tracking
New forecast layout! Learn more

10-Day Weather Forecast

Advertisements
Track Severe Weather on mobile